Startpagina
METAR-TAF:

METAR-TAF

Vliegvelden :

Luchthaven Genève

Genève, Zwitserland

breedte: 46-15N, lengte: 006-08E, hoogte: 420 m

Actueel weer

Dit bericht is 36 minuten geleden gemaakt, om 05:50 UTC
Wind 1 kt uit variabele richting
Temperatuur 1°C
Vochtigheid 93%
Druk 1024 hPa
Zicht 10 km of meer
Ondiepe mist

METAR: LSGG 110550Z VRB01KT 9999 MIFG NSC 01/00 Q1024 NOSIG

Tijdstip: 07:26 (06:26 UTC)

Verwachting

Dit bericht is 1 uur en het 1 minuten geleden gemaakt, om 05:25 UTC
Verwachting geldig van 11 om 06 UTC tot 12 om 12 UTC
Wind 3 kt uit variabele richting
Zicht 10 km of meer
Weinig wolken op 4000 ft
Wijzigt naar
van 11 om 14 UTC tot 11 om 16 UTC
Wind 10 kt uit het noordoosten
Wijzigt naar
van 12 om 00 UTC tot 12 om 03 UTC
Gebroken wolken op 3000 ft

TAF: LSGG 110525Z 1106/1212 VRB03KT 9999 FEW040 TX06/1114Z TN02/1106Z TNM03/1206Z BECMG 1114/1116 05010KT BECMG 1200/1203 BKN030

Waarnemingen en weersverwachtingen van meer dan 4000 vliegvelden (METAR en TAF).

De beschikbare stations zijn de gele en rode punten op de kaart.

Ga met uw muis naar het station om de naam te zien.

Klik dan om waarnemingen en weersverwachtingen te zien.

kaart wijzigen: klik op de groene knoppen met een zwart kruis om in te zoomen, op de groene knop met een streepje om uit te zoomen of op de groene pijlen voor aangrenzende kaarten.


METAR-TAF: